This is the latest recevied weather packets stored in our database for station/object M9XDX-WX. If no packets are shown the sender has not sent any weather packets the latest 10 day(s).
| Time | Temp. | Humidity | Pressure | Rain* | Wind** | Luminosity | Snow |
|---|---|---|---|---|---|---|---|
| 1777608003 | 12.78° C | 55% | 1017.5 hPa | 0 mm | - | 0 W/m² | - |
| 1777607403 | 12.78° C | 55% | 1017.7 hPa | 0 mm | - | 0 W/m² | - |
| 1777606203 | 12.78° C | 54% | 1017.8 hPa | 0 mm | - | 0 W/m² | - |
| 1777601538 | 13.33° C | 52% | 1017.6 hPa | 0 mm | - | 0 W/m² | - |
| 1777600203 | 13.33° C | 51% | 1017.8 hPa | 0 mm | - | 0 W/m² | - |
| 1777596603 | 13.89° C | 47% | 1017.9 hPa | 0 mm | - | 0 W/m² | - |
| 1777594203 | 13.89° C | 48% | 1018 hPa | 0 mm | - | 0 W/m² | - |
| 1777590603 | 15° C | 44% | 1018.4 hPa | 0 mm | - | 0 W/m² | - |
| 1777574403 | 19.44° C | 36% | 1017.1 hPa | 0 mm | - | 47 W/m² | - |
| 1777573203 | 20° C | 34% | 1017.3 hPa | 0 mm | - | 76 W/m² | - |
| 1777572139 | 20.56° C | 36% | 1017.1 hPa | 0 mm | - | 136 W/m² | - |
| 1777568403 | 21.67° C | 30% | 1016.6 hPa | 0 mm | - | 345 W/m² | - |
| 1777566003 | 21.67° C | 33% | 1016.7 hPa | 0 mm | - | 287 W/m² | - |
| 1777563003 | 22.22° C | 26% | 1017.2 hPa | 0 mm | - | 370 W/m² | - |
| 1777561803 | 22.22° C | 32% | 1017.1 hPa | 0 mm | - | 485 W/m² | - |
| 1777561203 | 22.78° C | 32% | 1017 hPa | 0 mm | - | 597 W/m² | - |
| 1777557003 | 22.22° C | 32% | 1017.6 hPa | 0 mm | - | 743 W/m² | - |
| 1777553403 | 21.67° C | 37% | 1018.1 hPa | 0 mm | - | 795 W/m² | - |
| 1777552340 | 21.11° C | 35% | 1018.3 hPa | 0 mm | - | 800 W/m² | - |
| 1777551003 | 21.11° C | 41% | 1018.6 hPa | 0 mm | - | 801 W/m² | - |
| 1777549803 | 20.56° C | 42% | 1018.9 hPa | 0 mm | - | 791 W/m² | - |
| 1777548003 | 19.44° C | 43% | 1018.9 hPa | 0 mm | - | 775 W/m² | - |
| 1777546803 | 18.33° C | 47% | 1019 hPa | 0 mm | - | 752 W/m² | - |
| 1777543339 | 16.67° C | 53% | 1019.3 hPa | 0 mm | - | 640 W/m² | - |
| 1777541403 | 15.56° C | 53% | 1019.4 hPa | 0 mm | - | 574 W/m² | - |
* Rain latest hour (hover to see other rain measurements)
** Current wind speed in m/s (hover to see current wind gust speed)